KRAL/RAL METAR and TAF weather

Enter ICAO airport designator
Station Type Date Time Source
KRAL METAR 2018/12/13 08:53 UTC NOAA

KRAL 130853Z AUTO 05005KT 6SM BR CLR 09/08 A3020 RMK AO2 SLP217 T00890078 51003


Station Type Date Time Source
KRAL Decoded METAR 2018/12/13 08:53 UTC NOAA

RIVERSIDE MUNICIPAL AIRPORT , CA, United States (KRAL) 33-57N 117-27W 252M
Dec 13, 2018 - 03:53 AM EST / 2018.12.13 0853 UTC
Wind: from the NE (050 degrees) at 6 MPH (5 KT):0
Visibility: 6 mile(s):0
Sky conditions: clear
Weather: mist
Temperature: 48.0 F (8.9 C)
Dew Point: 46.0 F (7.8 C)
Relative Humidity: 92%
Pressure (altimeter): 30.2 in. Hg (1022 hPa)
Pressure tendency: 0.01 inches (0.3 hPa) higher than three hours ago
ob: KRAL 130853Z AUTO 05005KT 6SM BR CLR 09/08 A3020 RMK AO2 SLP217 T00890078 51003
cycle: 9

Station Type Date Time Source
KRAL TAF UTC NOAA

Error!


Example: see airport list